createdAt,value
2022-11-18T00:01:24.903Z,97427.00
2022-11-18T00:02:58.038Z,97429.00
2022-11-18T00:04:31.123Z,97435.00
2022-11-18T00:06:05.743Z,97431.00
2022-11-18T00:07:38.918Z,97446.00
2022-11-18T00:09:12.131Z,97432.00
2022-11-18T00:10:44.295Z,97442.00
2022-11-18T00:12:35.140Z,97432.00
2022-11-18T00:14:20.560Z,97446.00
2022-11-18T00:16:03.078Z,97450.00
2022-11-18T00:17:36.232Z,97447.00
2022-11-18T00:19:08.410Z,97440.00
2022-11-18T00:20:41.505Z,97439.00
2022-11-18T00:22:14.881Z,97438.00
2022-11-18T00:23:49.110Z,97437.00
2022-11-18T00:25:22.421Z,97432.00
2022-11-18T00:26:56.652Z,97437.00
2022-11-18T00:28:28.868Z,97450.00
2022-11-18T00:30:02.162Z,97442.00
2022-11-18T00:31:36.666Z,97444.00
2022-11-18T00:33:09.826Z,97441.00
2022-11-18T00:34:43.518Z,97469.00
2022-11-18T00:36:15.726Z,97457.00
2022-11-18T00:37:49.001Z,97461.00
2022-11-18T00:39:22.801Z,97463.00
2022-11-18T00:41:02.706Z,97462.00
2022-11-18T00:42:54.009Z,97455.00
2022-11-18T00:44:26.620Z,97455.00
2022-11-18T00:45:59.863Z,97458.00
2022-11-18T00:47:33.365Z,97462.00
2022-11-18T00:49:06.772Z,97456.00
2022-11-18T00:50:45.821Z,97464.00
2022-11-18T00:52:20.673Z,97462.00
2022-11-18T00:53:54.760Z,97454.00
2022-11-18T00:55:29.230Z,97459.00
2022-11-18T00:57:04.029Z,97463.00
2022-11-18T00:58:38.037Z,97453.00
2022-11-18T01:00:12.253Z,97459.00
2022-11-18T01:01:45.699Z,97456.00
2022-11-18T01:03:20.372Z,97458.00
2022-11-18T01:04:53.531Z,97466.00
2022-11-18T01:06:26.942Z,97464.00
2022-11-18T01:08:01.605Z,97465.00
2022-11-18T01:09:34.880Z,97464.00
2022-11-18T01:11:22.604Z,97466.00
2022-11-18T01:13:13.201Z,97470.00
2022-11-18T01:14:46.641Z,97478.00
2022-11-18T01:16:21.485Z,97473.00
2022-11-18T01:17:54.703Z,97478.00
2022-11-18T01:19:29.296Z,97467.00
2022-11-18T01:21:06.316Z,97480.00
2022-11-18T01:22:39.496Z,97474.00
2022-11-18T01:24:12.876Z,97485.00
2022-11-18T01:25:49.536Z,97483.00
2022-11-18T01:27:22.691Z,97486.00
2022-11-18T01:28:56.787Z,97492.00
2022-11-18T01:30:30.065Z,97486.00
2022-11-18T01:32:24.353Z,97491.00
2022-11-18T01:33:57.565Z,97483.00
2022-11-18T01:35:36.286Z,97495.00
2022-11-18T01:37:08.625Z,97493.00
2022-11-18T01:38:41.902Z,97485.00
2022-11-18T01:40:15.490Z,97481.00
2022-11-18T01:41:48.845Z,97482.00
2022-11-18T01:43:25.541Z,97497.00
2022-11-18T01:45:09.251Z,97496.00
2022-11-18T01:46:42.397Z,97498.00
2022-11-18T01:48:21.992Z,97493.00
2022-11-18T01:49:54.644Z,97499.00
2022-11-18T01:51:35.678Z,97500.00
2022-11-18T01:53:14.823Z,97495.00
2022-11-18T01:54:55.315Z,97499.00
2022-11-18T01:56:38.421Z,97501.00
2022-11-18T01:58:19.257Z,97499.00
2022-11-18T01:59:59.986Z,97511.00
2022-11-18T02:01:33.969Z,97517.00
2022-11-18T02:03:08.412Z,97511.00
2022-11-18T02:04:46.686Z,97512.00
2022-11-18T02:06:20.879Z,97505.00
2022-11-18T02:07:56.286Z,97510.00
2022-11-18T02:09:29.545Z,97512.00
2022-11-18T02:11:03.042Z,97511.00
2022-11-18T02:12:37.297Z,97503.00
2022-11-18T02:14:11.808Z,97514.00
2022-11-18T02:15:55.366Z,97511.00
2022-11-18T02:17:45.587Z,97517.00
2022-11-18T02:19:51.941Z,97513.00
2022-11-18T02:21:50.861Z,97515.00
2022-11-18T02:24:10.944Z,97505.00
2022-11-18T02:26:07.016Z,97513.00
2022-11-18T02:28:33.087Z,97521.00
2022-11-18T02:30:10.059Z,97517.00
2022-11-18T02:31:53.290Z,97514.00
2022-11-18T02:33:37.507Z,97516.00
2022-11-18T02:35:20.927Z,97522.00
2022-11-18T02:37:00.123Z,97519.00
2022-11-18T02:38:41.143Z,97524.00
2022-11-18T02:40:20.809Z,97532.00
2022-11-18T02:41:57.741Z,97530.00
2022-11-18T02:43:36.699Z,97540.00
2022-11-18T02:45:18.159Z,97533.00
2022-11-18T02:47:00.065Z,97533.00
2022-11-18T02:48:38.877Z,97524.00
2022-11-18T02:50:16.889Z,97533.00
2022-11-18T02:51:52.505Z,97533.00
2022-11-18T02:53:31.005Z,97545.00
2022-11-18T02:55:08.159Z,97532.00
2022-11-18T02:56:42.382Z,97543.00
2022-11-18T02:58:20.370Z,97535.00
2022-11-18T02:59:52.696Z,97534.00
2022-11-18T03:01:31.169Z,97532.00
2022-11-18T03:03:27.573Z,97539.00
2022-11-18T03:05:00.787Z,97532.00
2022-11-18T03:06:38.792Z,97537.00
2022-11-18T03:08:20.713Z,97542.00
2022-11-18T03:09:55.128Z,97546.00
2022-11-18T03:11:31.029Z,97544.00
2022-11-18T03:13:12.632Z,97546.00
2022-11-18T03:15:00.201Z,97547.00
2022-11-18T03:16:42.924Z,97557.00
2022-11-18T03:18:28.822Z,97544.00
2022-11-18T03:20:18.932Z,97553.00
2022-11-18T03:22:08.176Z,97557.00
2022-11-18T03:23:49.627Z,97556.00
2022-11-18T03:25:32.276Z,97553.00
2022-11-18T03:27:14.061Z,97556.00
2022-11-18T03:29:00.488Z,97554.00
2022-11-18T03:30:38.613Z,97559.00
2022-11-18T03:32:18.370Z,97559.00
2022-11-18T03:33:58.633Z,97558.00
2022-11-18T03:35:36.106Z,97560.00
2022-11-18T03:37:13.913Z,97556.00
2022-11-18T03:38:53.113Z,97566.00
2022-11-18T03:40:32.440Z,97572.00
2022-11-18T03:42:13.882Z,97567.00
2022-11-18T03:43:54.442Z,97573.00
2022-11-18T03:45:33.816Z,97574.00
2022-11-18T03:47:15.742Z,97574.00
2022-11-18T03:48:53.080Z,97574.00
2022-11-18T03:50:32.864Z,97589.00
2022-11-18T03:52:12.944Z,97592.00
2022-11-18T03:53:53.218Z,97586.00
2022-11-18T03:55:32.502Z,97588.00
2022-11-18T03:57:13.147Z,97590.00
2022-11-18T03:58:54.385Z,97587.00
2022-11-18T04:00:33.648Z,97584.00
2022-11-18T04:02:13.171Z,97586.00
2022-11-18T04:03:48.444Z,97579.00
2022-11-18T04:05:21.944Z,97581.00
2022-11-18T04:07:06.063Z,97581.00
2022-11-18T04:08:43.327Z,97586.00
2022-11-18T04:10:21.410Z,97588.00
2022-11-18T04:12:03.919Z,97594.00
2022-11-18T04:13:39.121Z,97591.00
2022-11-18T04:15:12.306Z,97588.00
2022-11-18T04:16:46.478Z,97592.00
2022-11-18T04:18:20.022Z,97598.00
2022-11-18T04:19:54.333Z,97594.00
2022-11-18T04:21:27.523Z,97598.00
2022-11-18T04:23:00.886Z,97605.00
2022-11-18T04:24:33.117Z,97607.00
2022-11-18T04:26:06.416Z,97609.00
2022-11-18T04:27:39.936Z,97608.00
2022-11-18T04:29:13.070Z,97609.00
2022-11-18T04:30:46.266Z,97605.00
2022-11-18T04:32:19.392Z,97608.00
2022-11-18T04:33:52.856Z,97608.00
2022-11-18T04:35:27.941Z,97623.00
2022-11-18T04:37:00.305Z,97614.00
2022-11-18T04:38:33.349Z,97613.00
2022-11-18T04:40:08.527Z,97622.00
2022-11-18T04:41:55.935Z,97620.00
2022-11-18T04:43:29.094Z,97635.00
2022-11-18T04:45:02.581Z,97635.00
2022-11-18T04:46:34.809Z,97633.00
2022-11-18T04:48:08.326Z,97630.00
2022-11-18T04:49:41.811Z,97634.00
2022-11-18T04:51:15.427Z,97641.00
2022-11-18T04:52:48.513Z,97642.00
2022-11-18T04:54:21.764Z,97642.00
2022-11-18T04:55:55.101Z,97652.00
2022-11-18T04:57:28.287Z,97642.00
2022-11-18T04:59:01.329Z,97649.00
2022-11-18T05:00:34.602Z,97647.00
2022-11-18T05:02:08.375Z,97646.00
2022-11-18T05:03:45.095Z,97652.00
2022-11-18T05:05:20.866Z,97652.00
2022-11-18T05:06:55.622Z,97658.00
2022-11-18T05:08:28.808Z,97662.00
2022-11-18T05:10:02.280Z,97666.00
2022-11-18T05:12:06.265Z,97665.00
2022-11-18T05:13:38.760Z,97660.00
2022-11-18T05:15:12.049Z,97654.00
2022-11-18T05:16:44.723Z,97659.00
2022-11-18T05:18:17.881Z,97658.00
2022-11-18T05:19:50.057Z,97663.00
2022-11-18T05:21:23.204Z,97666.00
2022-11-18T05:22:57.775Z,97657.00
2022-11-18T05:24:30.022Z,97665.00
2022-11-18T05:26:04.901Z,97670.00
2022-11-18T05:27:38.260Z,97670.00
2022-11-18T05:29:11.701Z,97675.00
2022-11-18T05:30:44.830Z,97678.00
2022-11-18T05:32:18.201Z,97672.00
2022-11-18T05:33:50.401Z,97666.00
2022-11-18T05:35:23.558Z,97667.00
2022-11-18T05:36:57.474Z,97671.00
2022-11-18T05:38:32.803Z,97675.00
2022-11-18T05:40:07.979Z,97681.00
2022-11-18T05:41:58.574Z,97679.00
2022-11-18T05:43:33.871Z,97680.00
2022-11-18T05:45:08.009Z,97684.00
2022-11-18T05:46:41.130Z,97675.00
2022-11-18T05:48:13.279Z,97688.00
2022-11-18T05:49:46.649Z,97684.00
2022-11-18T05:51:18.980Z,97697.00
2022-11-18T05:52:52.245Z,97692.00
2022-11-18T05:54:27.591Z,97690.00
2022-11-18T05:56:08.751Z,97698.00
2022-11-18T05:57:41.908Z,97701.00
2022-11-18T05:59:16.065Z,97703.00
2022-11-18T06:00:53.317Z,97692.00
2022-11-18T06:02:26.586Z,97694.00
2022-11-18T06:04:03.894Z,97698.00
2022-11-18T06:05:37.254Z,97704.00
2022-11-18T06:07:15.638Z,97710.00
2022-11-18T06:08:56.426Z,97702.00
2022-11-18T06:10:34.800Z,97703.00
2022-11-18T06:12:09.880Z,97719.00
2022-11-18T06:13:50.241Z,97717.00
2022-11-18T06:15:27.343Z,97715.00
2022-11-18T06:17:06.722Z,97718.00
2022-11-18T06:18:39.892Z,97729.00
2022-11-18T06:20:14.182Z,97720.00
2022-11-18T06:21:48.689Z,97730.00
2022-11-18T06:23:22.395Z,97735.00
2022-11-18T06:24:55.797Z,97726.00
2022-11-18T06:26:30.633Z,97740.00
2022-11-18T06:28:04.164Z,97735.00
2022-11-18T06:29:37.350Z,97740.00
2022-11-18T06:31:10.541Z,97737.00
2022-11-18T06:32:43.865Z,97739.00
2022-11-18T06:34:17.103Z,97750.00
2022-11-18T06:35:49.289Z,97750.00
2022-11-18T06:37:22.644Z,97749.00
2022-11-18T06:38:55.852Z,97741.00
2022-11-18T06:40:34.477Z,97741.00
2022-11-18T06:42:09.757Z,97757.00
2022-11-18T06:43:42.020Z,97755.00
2022-11-18T06:45:14.560Z,97762.00
2022-11-18T06:46:57.140Z,97761.00
2022-11-18T06:48:29.304Z,97756.00
2022-11-18T06:50:02.483Z,97744.00
2022-11-18T06:51:35.723Z,97760.00
2022-11-18T06:53:08.902Z,97757.00
2022-11-18T06:54:42.257Z,97759.00
2022-11-18T06:56:18.560Z,97766.00
2022-11-18T06:57:53.116Z,97760.00
2022-11-18T06:59:26.245Z,97766.00
2022-11-18T07:01:09.821Z,97772.00
2022-11-18T07:02:43.148Z,97782.00
2022-11-18T07:04:16.266Z,97776.00
2022-11-18T07:05:49.765Z,97784.00
2022-11-18T07:07:22.972Z,97785.00
2022-11-18T07:08:57.230Z,97784.00
2022-11-18T07:10:30.462Z,97783.00
2022-11-18T07:12:04.658Z,97792.00
2022-11-18T07:13:43.605Z,97791.00
2022-11-18T07:15:17.262Z,97794.00
2022-11-18T07:16:50.455Z,97800.00
2022-11-18T07:18:23.621Z,97798.00
2022-11-18T07:19:56.769Z,97801.00
2022-11-18T07:21:30.578Z,97808.00
2022-11-18T07:23:03.752Z,97811.00
2022-11-18T07:24:37.909Z,97804.00
2022-11-18T07:26:12.294Z,97806.00
2022-11-18T07:27:45.409Z,97812.00
2022-11-18T07:29:20.034Z,97816.00
2022-11-18T07:30:53.773Z,97812.00
2022-11-18T07:32:27.407Z,97819.00
2022-11-18T07:34:00.904Z,97819.00
2022-11-18T07:35:34.478Z,97830.00
2022-11-18T07:37:07.769Z,97827.00
2022-11-18T07:38:41.992Z,97828.00
2022-11-18T07:40:15.557Z,97830.00
2022-11-18T07:41:48.811Z,97841.00
2022-11-18T07:43:22.141Z,97841.00
2022-11-18T07:44:56.918Z,97851.00
2022-11-18T07:46:32.749Z,97845.00
2022-11-18T07:48:06.504Z,97846.00
2022-11-18T07:49:39.783Z,97845.00
2022-11-18T07:51:14.581Z,97844.00
2022-11-18T07:52:47.741Z,97853.00
2022-11-18T07:54:20.861Z,97851.00
2022-11-18T07:55:55.515Z,97849.00
2022-11-18T07:57:28.874Z,97850.00
2022-11-18T07:59:02.516Z,97855.00
2022-11-18T08:00:37.204Z,97858.00
2022-11-18T08:02:13.000Z,97859.00
2022-11-18T08:03:47.659Z,97865.00
2022-11-18T08:05:20.871Z,97852.00
2022-11-18T08:06:54.093Z,97861.00
2022-11-18T08:08:27.522Z,97860.00
2022-11-18T08:10:03.166Z,97863.00
2022-11-18T08:11:36.938Z,97865.00
2022-11-18T08:13:10.239Z,97862.00
2022-11-18T08:14:43.429Z,97868.00
2022-11-18T08:16:21.363Z,97863.00
2022-11-18T08:17:54.615Z,97866.00
2022-11-18T08:19:27.900Z,97877.00
2022-11-18T08:21:04.006Z,97874.00
2022-11-18T08:22:37.096Z,97870.00
2022-11-18T08:24:11.240Z,97873.00
2022-11-18T08:25:46.772Z,97870.00
2022-11-18T08:27:19.953Z,97876.00
2022-11-18T08:28:54.086Z,97875.00
2022-11-18T08:30:27.392Z,97876.00
2022-11-18T08:32:02.303Z,97880.00
2022-11-18T08:33:35.341Z,97880.00
2022-11-18T08:35:11.332Z,97886.00
2022-11-18T08:36:44.790Z,97884.00
2022-11-18T08:38:18.390Z,97884.00
2022-11-18T08:39:51.575Z,97887.00
2022-11-18T08:41:33.405Z,97890.00
2022-11-18T08:43:06.593Z,97885.00
2022-11-18T08:44:39.758Z,97889.00
2022-11-18T08:46:13.216Z,97890.00
2022-11-18T08:47:47.829Z,97889.00
2022-11-18T08:49:21.363Z,97891.00
2022-11-18T08:50:54.873Z,97892.00
2022-11-18T08:52:28.299Z,97893.00
2022-11-18T08:54:02.081Z,97903.00
2022-11-18T08:55:35.286Z,97896.00
2022-11-18T08:57:08.734Z,97904.00
2022-11-18T08:58:42.189Z,97904.00
2022-11-18T09:00:17.220Z,97894.00
2022-11-18T09:01:50.428Z,97896.00
2022-11-18T09:03:25.128Z,97900.00
2022-11-18T09:04:58.306Z,97906.00
2022-11-18T09:06:31.500Z,97905.00
2022-11-18T09:08:05.101Z,97900.00
2022-11-18T09:09:38.219Z,97904.00
2022-11-18T09:11:15.715Z,97901.00
2022-11-18T09:12:48.838Z,97904.00
2022-11-18T09:16:15.800Z,97913.00
2022-11-18T09:17:49.165Z,97894.00
2022-11-18T09:19:46.336Z,97906.00
2022-11-18T09:21:19.143Z,97910.00
2022-11-18T09:22:52.699Z,97905.00
2022-11-18T09:24:25.797Z,97911.00
2022-11-18T09:25:59.992Z,97911.00
2022-11-18T09:27:33.161Z,97909.00
2022-11-18T09:29:06.612Z,97915.00
2022-11-18T09:30:39.685Z,97920.00
2022-11-18T09:32:12.869Z,97918.00
2022-11-18T09:33:46.537Z,97912.00
2022-11-18T09:35:21.539Z,97922.00
2022-11-18T09:36:56.736Z,97922.00
2022-11-18T09:38:31.372Z,97923.00
2022-11-18T09:40:05.547Z,97935.00
2022-11-18T09:41:46.977Z,97935.00
2022-11-18T09:43:30.584Z,97937.00
2022-11-18T09:45:25.486Z,97946.00
2022-11-18T09:47:14.985Z,97948.00
2022-11-18T09:49:07.375Z,97948.00
2022-11-18T09:50:49.673Z,97955.00
2022-11-18T09:52:35.587Z,97952.00
2022-11-18T09:54:17.902Z,97942.00
2022-11-18T09:55:53.188Z,97957.00
2022-11-18T09:57:38.732Z,97951.00
2022-11-18T09:59:15.092Z,97953.00
2022-11-18T10:00:48.352Z,97954.00
2022-11-18T10:02:32.148Z,97960.00
2022-11-18T10:04:05.731Z,97954.00
2022-11-18T10:05:50.764Z,97958.00
2022-11-18T10:07:38.337Z,97965.00
2022-11-18T10:09:34.281Z,97967.00
2022-11-18T10:11:15.482Z,97964.00
2022-11-18T10:12:55.243Z,97965.00
2022-11-18T10:14:51.440Z,97966.00
2022-11-18T10:16:42.087Z,97969.00
2022-11-18T10:20:33.878Z,97974.00
2022-11-18T10:24:21.357Z,97977.00
2022-11-18T10:25:55.587Z,97981.00
2022-11-18T10:27:38.850Z,97977.00
2022-11-18T10:29:12.526Z,97981.00
2022-11-18T10:30:45.987Z,97984.00
2022-11-18T10:32:19.806Z,97980.00
2022-11-18T10:34:00.698Z,97986.00
2022-11-18T10:35:36.841Z,97986.00
2022-11-18T10:37:45.379Z,97985.00
2022-11-18T10:39:18.807Z,97991.00
2022-11-18T10:41:01.436Z,97994.00
2022-11-18T10:42:42.614Z,97995.00
2022-11-18T10:44:38.638Z,97990.00
2022-11-18T10:46:28.697Z,97990.00
2022-11-18T10:48:10.720Z,97996.00
2022-11-18T10:49:44.493Z,98001.00
2022-11-18T10:51:25.841Z,97995.00
2022-11-18T10:53:00.845Z,98000.00
2022-11-18T10:54:34.329Z,97998.00
2022-11-18T10:56:12.663Z,98002.00
2022-11-18T10:57:46.092Z,97989.00
2022-11-18T10:59:30.922Z,97997.00
2022-11-18T11:01:15.069Z,97991.00
2022-11-18T11:02:48.527Z,97992.00
2022-11-18T11:04:27.122Z,97995.00
2022-11-18T11:06:34.983Z,97989.00
2022-11-18T11:08:36.184Z,97992.00
2022-11-18T11:10:23.414Z,97989.00
2022-11-18T11:12:01.375Z,97990.00
2022-11-18T11:13:44.127Z,97989.00
2022-11-18T11:15:36.140Z,97995.00
2022-11-18T11:17:13.924Z,97995.00
2022-11-18T11:18:59.815Z,98002.00
2022-11-18T11:20:33.148Z,97997.00
2022-11-18T11:22:12.014Z,97994.00
2022-11-18T11:23:47.666Z,97996.00
2022-11-18T11:30:03.290Z,98002.00
2022-11-18T11:31:50.918Z,97999.00
2022-11-18T11:33:33.810Z,97998.00
2022-11-18T11:35:19.452Z,98005.00
2022-11-18T11:37:02.728Z,98005.00
2022-11-18T11:39:01.306Z,97997.00
2022-11-18T11:40:45.038Z,98002.00
2022-11-18T11:42:35.538Z,97999.00
2022-11-18T11:44:31.353Z,98004.00
2022-11-18T11:46:33.414Z,98004.00
2022-11-18T11:48:30.560Z,98012.00
2022-11-18T11:50:16.066Z,98012.00
2022-11-18T11:51:55.598Z,98008.00
2022-11-18T11:54:03.543Z,98009.00
2022-11-18T11:55:52.474Z,98013.00
2022-11-18T11:57:44.978Z,98015.00
2022-11-18T11:59:30.260Z,98003.00
2022-11-18T12:01:20.103Z,98005.00
2022-11-18T12:03:19.486Z,98005.00
2022-11-18T12:04:55.687Z,98010.00
2022-11-18T12:06:29.731Z,98004.00
2022-11-18T12:08:07.229Z,98008.00
2022-11-18T12:10:10.025Z,98009.00
2022-11-18T12:11:54.081Z,98008.00
2022-11-18T12:13:43.115Z,98004.00
2022-11-18T12:15:31.271Z,98009.00
2022-11-18T12:17:15.025Z,98014.00
2022-11-18T12:18:58.227Z,98011.00
2022-11-18T12:20:45.080Z,98012.00
2022-11-18T12:22:18.323Z,98012.00
2022-11-18T12:24:31.357Z,98013.00
2022-11-18T12:26:10.198Z,98018.00
2022-11-18T12:28:00.865Z,98023.00
2022-11-18T12:30:01.552Z,98017.00
2022-11-18T12:31:37.085Z,98022.00
2022-11-18T12:33:18.681Z,98018.00
2022-11-18T12:35:01.299Z,98017.00
2022-11-18T12:36:37.282Z,98023.00
2022-11-18T12:38:31.756Z,98026.00
2022-11-18T12:40:05.859Z,98027.00
2022-11-18T12:42:15.828Z,98024.00
2022-11-18T12:44:07.489Z,98025.00
2022-11-18T12:46:01.684Z,98027.00
2022-11-18T12:47:59.587Z,98033.00
2022-11-18T12:50:12.791Z,98022.00
2022-11-18T12:51:46.251Z,98031.00
2022-11-18T12:53:38.921Z,98034.00
2022-11-18T12:55:19.258Z,98027.00
2022-11-18T12:56:52.807Z,98033.00
2022-11-18T12:58:28.680Z,98029.00
2022-11-18T13:00:28.406Z,98033.00
2022-11-18T13:02:21.433Z,98030.00
2022-11-18T13:04:08.224Z,98031.00
2022-11-18T13:05:41.721Z,98038.00
2022-11-18T13:07:29.494Z,98029.00
2022-11-18T13:09:07.928Z,98033.00
2022-11-18T13:10:54.591Z,98039.00
2022-11-18T13:12:30.538Z,98039.00
2022-11-18T13:14:25.870Z,98035.00
2022-11-18T13:16:34.346Z,98035.00
2022-11-18T13:18:18.235Z,98042.00
2022-11-18T13:19:58.346Z,98043.00
2022-11-18T13:21:49.288Z,98044.00
2022-11-18T13:23:50.005Z,98052.00
2022-11-18T13:25:28.158Z,98047.00
2022-11-18T13:27:01.522Z,98054.00
2022-11-18T13:28:45.009Z,98055.00
2022-11-18T13:30:19.865Z,98056.00
2022-11-18T13:32:04.765Z,98060.00
2022-11-18T13:33:40.181Z,98062.00
2022-11-18T13:35:17.276Z,98060.00
2022-11-18T13:36:53.910Z,98058.00
2022-11-18T13:38:28.668Z,98062.00
2022-11-18T13:40:02.101Z,98062.00
2022-11-18T13:41:36.726Z,98062.00
2022-11-18T13:43:12.324Z,98073.00
2022-11-18T13:44:52.492Z,98068.00
2022-11-18T13:46:27.421Z,98062.00
2022-11-18T13:48:09.296Z,98059.00
2022-11-18T13:49:54.522Z,98059.00
2022-11-18T13:51:28.199Z,98063.00
2022-11-18T13:53:13.031Z,98061.00
2022-11-18T13:54:47.593Z,98063.00
2022-11-18T13:56:33.242Z,98069.00
2022-11-18T13:58:30.778Z,98066.00
2022-11-18T14:00:09.353Z,98062.00
2022-11-18T14:01:46.813Z,98068.00
2022-11-18T14:03:29.816Z,98070.00
2022-11-18T14:05:03.304Z,98067.00
2022-11-18T14:06:39.025Z,98070.00
2022-11-18T14:08:28.811Z,98077.00
2022-11-18T14:10:05.589Z,98075.00
2022-11-18T14:11:42.519Z,98068.00
2022-11-18T14:13:25.868Z,98079.00
2022-11-18T14:15:24.424Z,98080.00
2022-11-18T14:17:15.863Z,98079.00
2022-11-18T14:18:52.704Z,98078.00
2022-11-18T14:20:29.070Z,98079.00
2022-11-18T14:22:11.701Z,98081.00
2022-11-18T14:23:46.223Z,98087.00
2022-11-18T14:25:25.297Z,98087.00
2022-11-18T14:26:58.460Z,98080.00
2022-11-18T14:28:34.330Z,98090.00
2022-11-18T14:30:42.678Z,98093.00
2022-11-18T14:32:17.565Z,98086.00
2022-11-18T14:34:18.203Z,98086.00
2022-11-18T14:35:56.323Z,98089.00
2022-11-18T14:37:31.122Z,98091.00
2022-11-18T14:39:31.817Z,98089.00
2022-11-18T14:41:08.524Z,98096.00
2022-11-18T14:42:42.275Z,98091.00
2022-11-18T14:44:16.660Z,98096.00
2022-11-18T14:45:49.880Z,98108.00
2022-11-18T14:47:29.223Z,98100.00
2022-11-18T14:49:05.349Z,98102.00
2022-11-18T14:50:38.662Z,98099.00
2022-11-18T14:52:11.982Z,98109.00
2022-11-18T14:53:45.987Z,98112.00
2022-11-18T14:55:19.127Z,98111.00
2022-11-18T14:56:54.469Z,98102.00
2022-11-18T14:58:27.864Z,98104.00
2022-11-18T15:00:01.425Z,98111.00
2022-11-18T15:01:35.003Z,98106.00
2022-11-18T15:03:09.857Z,98111.00
2022-11-18T15:04:42.871Z,98113.00
2022-11-18T15:06:18.415Z,98105.00
2022-11-18T15:07:51.689Z,98112.00
2022-11-18T15:09:24.807Z,98105.00
2022-11-18T15:10:58.504Z,98116.00
2022-11-18T15:12:32.541Z,98113.00
2022-11-18T15:14:06.133Z,98116.00
2022-11-18T15:15:39.293Z,98117.00
2022-11-18T15:17:14.211Z,98124.00
2022-11-18T15:18:51.502Z,98123.00
2022-11-18T15:20:24.768Z,98119.00
2022-11-18T15:21:58.162Z,98119.00
2022-11-18T15:23:31.529Z,98116.00
2022-11-18T15:25:04.992Z,98124.00
2022-11-18T15:26:42.590Z,98122.00
2022-11-18T15:28:15.709Z,98122.00
2022-11-18T15:29:50.447Z,98134.00
2022-11-18T15:31:25.424Z,98127.00
2022-11-18T15:32:58.941Z,98130.00
2022-11-18T15:34:33.651Z,98139.00
2022-11-18T15:36:14.084Z,98142.00
2022-11-18T15:37:47.186Z,98142.00
2022-11-18T15:39:20.309Z,98137.00
2022-11-18T15:40:53.480Z,98143.00
2022-11-18T15:42:26.645Z,98145.00
2022-11-18T15:44:02.762Z,98138.00
2022-11-18T15:45:35.982Z,98150.00
2022-11-18T15:47:09.373Z,98145.00
2022-11-18T15:48:42.768Z,98152.00
2022-11-18T15:50:18.078Z,98156.00
2022-11-18T15:51:52.419Z,98155.00
2022-11-18T15:53:25.547Z,98155.00
2022-11-18T15:54:58.746Z,98164.00
2022-11-18T15:56:34.110Z,98163.00
2022-11-18T15:58:07.629Z,98157.00
2022-11-18T15:59:41.318Z,98163.00
2022-11-18T16:01:14.746Z,98163.00
2022-11-18T16:02:48.014Z,98154.00
2022-11-18T16:04:22.013Z,98157.00
2022-11-18T16:05:56.645Z,98163.00
2022-11-18T16:07:29.794Z,98157.00
2022-11-18T16:09:04.579Z,98165.00
2022-11-18T16:10:55.492Z,98166.00
2022-11-18T16:12:46.109Z,98166.00
2022-11-18T16:14:22.289Z,98168.00
2022-11-18T16:15:55.121Z,98166.00
2022-11-18T16:17:28.301Z,98159.00
2022-11-18T16:19:05.254Z,98167.00
2022-11-18T16:20:38.527Z,98167.00
2022-11-18T16:22:13.053Z,98166.00
2022-11-18T16:23:46.216Z,98161.00
2022-11-18T16:25:19.691Z,98170.00
2022-11-18T16:26:53.776Z,98171.00
2022-11-18T16:28:28.465Z,98174.00
2022-11-18T16:30:04.026Z,98175.00
2022-11-18T16:31:46.889Z,98172.00
2022-11-18T16:33:20.104Z,98176.00
2022-11-18T16:35:00.005Z,98173.00
2022-11-18T16:36:35.397Z,98177.00
2022-11-18T16:38:10.577Z,98172.00
2022-11-18T16:39:43.765Z,98179.00
2022-11-18T16:41:31.124Z,98177.00
2022-11-18T16:43:04.590Z,98187.00
2022-11-18T16:44:38.600Z,98185.00
2022-11-18T16:46:12.215Z,98195.00
2022-11-18T16:47:45.718Z,98196.00
2022-11-18T16:49:22.108Z,98191.00
2022-11-18T16:51:20.282Z,98192.00
2022-11-18T16:52:53.434Z,98200.00
2022-11-18T16:54:30.330Z,98200.00
2022-11-18T16:56:04.498Z,98205.00
2022-11-18T16:57:37.748Z,98202.00
2022-11-18T16:59:15.719Z,98210.00
2022-11-18T17:01:16.365Z,98197.00
2022-11-18T17:02:42.606Z,98210.00
2022-11-18T17:04:16.270Z,98197.00
2022-11-18T17:05:50.798Z,98207.00
2022-11-18T17:07:24.115Z,98205.00
2022-11-18T17:08:58.926Z,98209.00
2022-11-18T17:10:33.487Z,98204.00
2022-11-18T17:12:08.475Z,98209.00
2022-11-18T17:13:42.381Z,98215.00
2022-11-18T17:15:16.048Z,98216.00
2022-11-18T17:16:49.402Z,98225.00
2022-11-18T17:18:22.581Z,98227.00
2022-11-18T17:19:55.789Z,98221.00
2022-11-18T17:21:30.371Z,98229.00
2022-11-18T17:23:03.495Z,98231.00
2022-11-18T17:24:37.072Z,98222.00
2022-11-18T17:26:13.407Z,98235.00
2022-11-18T17:27:46.628Z,98225.00
2022-11-18T17:29:20.672Z,98235.00
2022-11-18T17:30:54.296Z,98234.00
2022-11-18T17:32:27.407Z,98234.00
2022-11-18T17:34:00.721Z,98232.00
2022-11-18T17:35:33.900Z,98232.00
2022-11-18T17:37:07.456Z,98228.00
2022-11-18T17:38:44.232Z,98224.00
2022-11-18T17:40:17.940Z,98231.00
2022-11-18T17:42:10.043Z,98240.00
2022-11-18T17:43:43.241Z,98230.00
2022-11-18T17:45:16.474Z,98233.00
2022-11-18T17:46:49.964Z,98240.00
2022-11-18T17:48:24.289Z,98239.00
2022-11-18T17:49:57.577Z,98234.00
2022-11-18T17:51:32.311Z,98242.00
2022-11-18T17:53:05.556Z,98254.00
2022-11-18T17:54:38.725Z,98248.00
2022-11-18T17:56:12.108Z,98258.00
2022-11-18T17:57:46.633Z,98251.00
2022-11-18T17:59:20.523Z,98246.00
2022-11-18T18:00:53.970Z,98248.00
2022-11-18T18:02:27.180Z,98256.00
2022-11-18T18:04:00.315Z,98252.00
2022-11-18T18:05:33.984Z,98264.00
2022-11-18T18:07:07.186Z,98274.00
2022-11-18T18:08:41.361Z,98256.00
2022-11-18T18:10:15.213Z,98269.00
2022-11-18T18:11:48.545Z,98274.00
2022-11-18T18:13:40.683Z,98280.00
2022-11-18T18:15:13.230Z,98268.00
2022-11-18T18:16:49.015Z,98274.00
2022-11-18T18:18:21.212Z,98265.00
2022-11-18T18:19:54.373Z,98275.00
2022-11-18T18:21:28.197Z,98272.00
2022-11-18T18:23:01.305Z,98269.00
2022-11-18T18:24:34.711Z,98273.00
2022-11-18T18:26:10.625Z,98274.00
2022-11-18T18:27:43.782Z,98274.00
2022-11-18T18:29:18.397Z,98271.00
2022-11-18T18:30:59.196Z,98273.00
2022-11-18T18:32:32.496Z,98285.00
2022-11-18T18:34:06.443Z,98270.00
2022-11-18T18:35:42.278Z,98272.00
2022-11-18T18:37:15.611Z,98279.00
2022-11-18T18:38:49.401Z,98278.00
2022-11-18T18:40:22.764Z,98283.00
2022-11-18T18:41:55.877Z,98274.00
2022-11-18T18:43:29.076Z,98280.00
2022-11-18T18:45:21.457Z,98271.00
2022-11-18T18:46:54.861Z,98267.00
2022-11-18T18:48:29.146Z,98278.00
2022-11-18T18:50:02.571Z,98272.00
2022-11-18T18:51:39.857Z,98261.00
2022-11-18T18:53:13.081Z,98264.00
2022-11-18T18:54:49.165Z,98263.00
2022-11-18T18:56:24.639Z,98273.00
2022-11-18T18:57:58.159Z,98275.00
2022-11-18T18:59:32.796Z,98275.00
2022-11-18T19:01:09.891Z,98278.00
2022-11-18T19:02:43.370Z,98273.00
2022-11-18T19:04:17.355Z,98278.00
2022-11-18T19:06:22.277Z,98283.00
2022-11-18T19:07:44.759Z,98278.00
2022-11-18T19:09:19.069Z,98275.00
2022-11-18T19:10:52.580Z,98272.00
2022-11-18T19:12:43.068Z,98281.00
2022-11-18T19:14:19.067Z,98282.00
2022-11-18T19:15:52.550Z,98285.00
2022-11-18T19:17:27.154Z,98282.00
2022-11-18T19:19:00.835Z,98296.00
2022-11-18T19:20:36.704Z,98294.00
2022-11-18T19:22:11.811Z,98301.00